Time;durP1;ratioP1;P1;durP2;ratioP2;P2;SDS_P1;SDS_P2;PMS_P1;PMS_P2;Temp;Humidity;BMP_temperature;BMP_pressure;BME280_temperature;BME280_humidity;BME280_pressure;Samples;Min_cycle;Max_cycle;Signal;HPM_P1;HPM_P2
2022/04/02 00:00:42;;;;;;;2.10;1.00;;;2.80;77.10;;;;;;2048904;29;20048;-89
2022/04/02 00:02:02;;;;;;;2.72;1.17;;;2.80;77.00;;;;;;2040808;29;20518;-89
2022/04/02 00:03:22;;;;;;;2.08;1.00;;;2.80;77.00;;;;;;2046207;29;20039;-88
2022/04/02 00:04:41;;;;;;;3.67;1.35;;;2.80;77.40;;;;;;2043165;29;20121;-88
2022/04/02 00:06:00;;;;;;;2.88;1.20;;;2.80;77.10;;;;;;2039812;29;20433;-89
2022/04/02 00:07:20;;;;;;;2.80;1.20;;;2.80;77.00;;;;;;2054049;28;20492;-89
2022/04/02 00:08:39;;;;;;;2.53;1.23;;;2.80;76.90;;;;;;2032779;29;20127;-88
2022/04/02 00:09:58;;;;;;;2.17;1.08;;;2.80;77.00;;;;;;2044593;28;20098;-88
2022/04/02 00:11:18;;;;;;;1.85;1.10;;;2.80;76.90;;;;;;2049004;29;20055;-89
2022/04/02 00:12:38;;;;;;;2.25;1.17;;;2.80;77.00;;;;;;2047479;28;20051;-89
2022/04/02 00:14:00;;;;;;;2.45;1.13;;;2.80;77.00;;;;;;2053087;28;20046;-87
2022/04/02 00:15:20;;;;;;;3.55;1.00;;;2.80;77.10;;;;;;2053821;28;20038;-89
2022/04/02 00:16:40;;;;;;;1.80;1.00;;;2.80;77.10;;;;;;2048944;29;20071;-89
2022/04/02 00:17:59;;;;;;;1.98;1.08;;;2.80;77.20;;;;;;2045568;29;20035;-88
2022/04/02 00:19:20;;;;;;;3.13;1.30;;;2.80;77.20;;;;;;2030090;29;20040;-89
2022/04/02 00:20:39;;;;;;;2.70;1.10;;;2.70;77.20;;;;;;2048738;28;20051;-89
2022/04/02 00:21:59;;;;;;;3.58;1.02;;;2.80;77.20;;;;;;2048922;29;20486;-88
2022/04/02 00:23:39;;;;;;;1.70;0.90;;;2.70;77.20;;;;;;2048206;29;20462;-89
2022/04/02 00:24:58;;;;;;;1.88;1.17;;;2.80;77.20;;;;;;2048789;29;20051;-89
2022/04/02 00:26:20;;;;;;;4.10;1.30;;;2.70;77.00;;;;;;2045650;28;20035;-89
2022/04/02 00:27:39;;;;;;;2.28;1.20;;;2.70;76.90;;;;;;2039972;29;20044;-88
2022/04/02 00:28:58;;;;;;;2.33;1.20;;;2.70;77.00;;;;;;2053573;28;20043;-89
2022/04/02 00:30:18;;;;;;;3.35;1.10;;;2.70;77.10;;;;;;2050345;29;20047;-87
2022/04/02 00:31:37;;;;;;;2.13;1.08;;;2.70;77.10;;;;;;2039445;29;20055;-88
2022/04/02 00:32:58;;;;;;;2.22;1.20;;;2.70;77.10;;;;;;2038401;29;20122;-89
2022/04/02 00:34:17;;;;;;;1.85;0.88;;;2.70;77.20;;;;;;2052154;28;20057;-89
2022/04/02 00:35:36;;;;;;;2.05;1.15;;;2.70;77.30;;;;;;2041750;29;20071;-89
2022/04/02 00:36:55;;;;;;;2.13;1.23;;;2.70;77.80;;;;;;2048001;28;20039;-89
2022/04/02 00:38:14;;;;;;;2.38;1.10;;;2.70;77.10;;;;;;2037213;29;20051;-88
2022/04/02 00:39:33;;;;;;;2.00;1.00;;;2.70;77.20;;;;;;2039427;29;20079;-88
2022/04/02 00:40:53;;;;;;;1.75;0.88;;;2.70;77.20;;;;;;2039310;29;20059;-89
2022/04/02 00:42:13;;;;;;;2.10;1.02;;;2.70;77.20;;;;;;2042518;29;20028;-88
2022/04/02 00:43:33;;;;;;;2.45;1.05;;;2.70;77.20;;;;;;2045453;29;20042;-88
2022/04/02 00:44:52;;;;;;;2.50;1.30;;;2.70;77.30;;;;;;2055822;28;20043;-89
2022/04/02 00:46:12;;;;;;;2.30;1.20;;;2.70;77.20;;;;;;2043899;29;20048;-89
2022/04/02 00:47:31;;;;;;;1.90;0.95;;;2.70;77.20;;;;;;2045455;29;20035;-89
2022/04/02 00:48:51;;;;;;;2.47;1.15;;;2.60;77.20;;;;;;2046481;28;20059;-89
2022/04/02 00:50:11;;;;;;;2.60;1.10;;;2.70;77.30;;;;;;2049182;29;20035;-89
2022/04/02 00:51:31;;;;;;;2.90;1.20;;;2.60;77.30;;;;;;2058170;28;20035;-89
2022/04/02 00:52:52;;;;;;;2.53;1.00;;;2.60;77.40;;;;;;2041560;29;20048;-89
2022/04/02 00:54:16;;;;;;;1.80;0.80;;;2.60;77.40;;;;;;2047128;29;20125;-89
2022/04/02 00:55:36;;;;;;;2.40;1.20;;;2.60;77.90;;;;;;2056137;28;20031;-89
2022/04/02 00:56:56;;;;;;;1.95;1.00;;;2.60;77.40;;;;;;2050862;29;20055;-89
2022/04/02 00:58:16;;;;;;;2.15;1.10;;;2.60;77.40;;;;;;2042208;29;20498;-89
2022/04/02 00:59:35;;;;;;;2.22;1.13;;;2.60;77.30;;;;;;2047594;29;20044;-89
2022/04/02 01:00:54;;;;;;;1.98;1.00;;;2.60;77.40;;;;;;2049558;29;20585;-89
2022/04/02 01:02:14;;;;;;;2.65;1.20;;;2.60;77.40;;;;;;2047053;29;20039;-89
2022/04/02 01:03:34;;;;;;;1.85;1.02;;;2.60;77.40;;;;;;2053560;28;20039;-88
2022/04/02 01:04:56;;;;;;;2.22;1.10;;;2.60;77.40;;;;;;2050713;29;20078;-89
2022/04/02 01:06:17;;;;;;;2.60;1.08;;;2.60;77.30;;;;;;2036894;29;20052;-88
2022/04/02 01:07:36;;;;;;;;;;;2.60;77.30;;;;;;2052433;28;20035;-89
2022/04/02 01:08:56;;;;;;;3.50;1.40;;;2.60;77.20;;;;;;2050259;29;19918;-89
2022/04/02 01:10:16;;;;;;;1.50;0.98;;;2.60;77.30;;;;;;2055325;28;20078;-89
2022/04/02 01:11:43;;;;;;;2.47;1.25;;;2.60;77.30;;;;;;2041671;29;20047;-89
2022/04/02 01:13:03;;;;;;;2.65;1.35;;;2.60;77.30;;;;;;2045604;29;20043;-88
2022/04/02 01:14:23;;;;;;;3.60;1.17;;;2.60;77.30;;;;;;2044573;29;20043;-89
2022/04/02 01:15:42;;;;;;;2.13;1.10;;;2.60;77.40;;;;;;2041137;28;20946;-89
2022/04/02 01:17:04;;;;;;;2.00;1.08;;;2.60;77.40;;;;;;2055181;28;20133;-89
2022/04/02 01:18:23;;;;;;;3.08;1.20;;;2.50;77.20;;;;;;2049954;29;20031;-89
2022/04/02 01:19:42;;;;;;;2.03;1.20;;;2.50;77.30;;;;;;2055060;28;20043;-89
2022/04/02 01:21:02;;;;;;;2.38;1.02;;;2.50;77.20;;;;;;2048802;29;20525;-89
2022/04/02 01:22:22;;;;;;;3.22;1.05;;;2.50;77.20;;;;;;2054203;28;20047;-89
2022/04/02 01:23:41;;;;;;;2.05;1.05;;;2.50;77.10;;;;;;2049635;29;20059;-89
2022/04/02 01:25:00;;;;;;;2.92;1.10;;;2.50;77.10;;;;;;2046768;29;20492;-89
2022/04/02 01:26:20;;;;;;;2.55;1.08;;;2.50;77.00;;;;;;2046851;28;20122;-89
2022/04/02 01:27:39;;;;;;;3.35;1.30;;;2.50;77.00;;;;;;2050015;29;20039;-89
2022/04/02 01:29:00;;;;;;;2.58;1.13;;;2.50;76.90;;;;;;2042071;29;20051;-89
2022/04/02 01:30:20;;;;;;;2.35;1.20;;;2.50;76.90;;;;;;2052792;28;20070;-89
2022/04/02 01:31:45;;;;;;;2.30;1.05;;;2.50;76.90;;;;;;2050061;29;20039;-89
2022/04/02 01:33:05;;;;;;;3.92;1.40;;;2.50;76.90;;;;;;2049660;29;20051;-88
2022/04/02 01:34:24;;;;;;;3.17;1.10;;;2.50;77.00;;;;;;2055183;28;20051;-89
2022/04/02 01:35:43;;;;;;;2.92;1.10;;;2.60;77.10;;;;;;2050098;28;20075;-88
2022/04/02 01:37:03;;;;;;;1.67;1.00;;;2.50;77.10;;;;;;2050511;29;20031;-88
2022/04/02 01:38:22;;;;;;;1.95;1.00;;;2.50;77.00;;;;;;2036236;29;20542;-88
2022/04/02 01:39:42;;;;;;;2.90;1.00;;;2.50;76.90;;;;;;2029470;29;20052;-89
2022/04/02 01:41:01;;;;;;;2.28;1.02;;;2.50;77.00;;;;;;2043521;29;20047;-89
2022/04/02 01:42:24;;;;;;;1.92;1.10;;;2.50;76.90;;;;;;2053322;28;20122;-88
2022/04/02 01:43:44;;;;;;;1.75;1.00;;;2.50;76.90;;;;;;2046297;29;20071;-89
2022/04/02 01:45:04;;;;;;;2.30;1.08;;;2.50;77.00;;;;;;2054746;28;20410;-89
2022/04/02 01:46:23;;;;;;;2.38;0.90;;;2.50;77.10;;;;;;2057124;28;20505;-89
2022/04/02 01:47:43;;;;;;;1.80;1.00;;;2.50;77.00;;;;;;2053869;28;20426;-89
2022/04/02 01:49:03;;;;;;;2.15;1.00;;;2.50;77.10;;;;;;2050222;29;20426;-89
2022/04/02 01:50:22;;;;;;;2.92;1.00;;;2.50;77.10;;;;;;2039499;29;20444;-89
2022/04/02 01:51:42;;;;;;;1.80;1.00;;;2.50;77.10;;;;;;2048154;28;20043;-89
2022/04/02 01:53:02;;;;;;;1.70;1.00;;;2.50;77.20;;;;;;2036692;29;20039;-89
2022/04/02 01:54:21;;;;;;;1.70;0.90;;;2.50;77.20;;;;;;2045806;29;20039;-89
2022/04/02 01:55:40;;;;;;;2.92;1.20;;;2.50;77.30;;;;;;2051076;28;20043;-89
2022/04/02 01:57:00;;;;;;;1.73;0.93;;;2.50;77.40;;;;;;2035520;29;20055;-89
2022/04/02 01:58:19;;;;;;;2.00;0.85;;;2.50;77.40;;;;;;2052199;28;20046;-89
2022/04/02 01:59:40;;;;;;;1.50;0.90;;;2.50;77.40;;;;;;2049536;29;20039;-89
2022/04/02 02:00:59;;;;;;;2.03;1.08;;;2.50;77.40;;;;;;2054765;28;20079;-89
2022/04/02 02:02:20;;;;;;;2.20;1.05;;;2.50;77.50;;;;;;2050048;29;20043;-89
2022/04/02 02:03:39;;;;;;;;;;;2.50;77.50;;;;;;2045806;29;20043;-88
2022/04/02 02:04:58;;;;;;;3.67;0.88;;;2.50;77.50;;;;;;2054861;28;19914;-89
2022/04/02 02:06:17;;;;;;;2.42;1.13;;;2.50;77.40;;;;;;2043369;29;20123;-89
2022/04/02 02:07:36;;;;;;;1.25;0.80;;;2.40;77.40;;;;;;2046936;29;20039;-89
2022/04/02 02:08:56;;;;;;;1.58;0.90;;;2.40;77.40;;;;;;2043451;29;20778;-89
2022/04/02 02:10:15;;;;;;;2.10;1.02;;;2.50;77.50;;;;;;2054570;28;20051;-89
2022/04/02 02:11:36;;;;;;;1.92;1.02;;;2.40;77.40;;;;;;2055017;28;20096;-89
2022/04/02 02:12:55;;;;;;;;;;;2.40;77.40;;;;;;2042340;29;20044;-89
2022/04/02 02:14:14;;;;;;;1.40;0.90;;;2.40;77.50;;;;;;2053886;28;19914;-88
2022/04/02 02:15:33;;;;;;;2.35;1.20;;;2.40;77.50;;;;;;2043929;29;20044;-89
2022/04/02 02:16:52;;;;;;;2.05;1.20;;;2.40;77.40;;;;;;2043245;29;20043;-88
2022/04/02 02:18:12;;;;;;;2.22;1.08;;;2.40;77.50;;;;;;2044133;29;20047;-88
2022/04/02 02:19:31;;;;;;;3.47;1.00;;;2.40;77.60;;;;;;2038441;29;20048;-89
2022/04/02 02:20:50;;;;;;;1.70;1.00;;;2.40;77.60;;;;;;2046839;28;20454;-88
2022/04/02 02:22:10;;;;;;;2.00;1.10;;;2.30;77.50;;;;;;2045013;29;20035;-88
2022/04/02 02:23:29;;;;;;;1.88;1.13;;;2.40;77.50;;;;;;2033813;29;20052;-89
2022/04/02 02:24:48;;;;;;;2.30;1.08;;;2.40;77.60;;;;;;2043795;29;20509;-89
2022/04/02 02:26:07;;;;;;;2.85;1.20;;;2.30;77.50;;;;;;2054212;28;20043;-89
2022/04/02 02:27:26;;;;;;;2.58;1.10;;;2.40;77.60;;;;;;2051753;28;20039;-89
2022/04/02 02:28:45;;;;;;;2.58;1.00;;;2.30;77.50;;;;;;2050129;29;20059;-89
2022/04/02 02:30:06;;;;;;;2.20;1.20;;;2.30;77.50;;;;;;2041707;29;20566;-89
2022/04/02 02:31:26;;;;;;;1.73;0.90;;;2.30;77.60;;;;;;2047300;28;20040;-89
2022/04/02 02:32:45;;;;;;;2.00;1.00;;;2.30;77.50;;;;;;2048358;29;21696;-89
2022/04/02 02:35:52;;;;;;;1.95;1.08;;;2.30;77.70;;;;;;2057646;28;20046;-89
2022/04/02 02:37:12;;;;;;;2.03;1.10;;;2.30;77.70;;;;;;2047986;29;20043;-89
2022/04/02 02:38:31;;;;;;;2.08;1.00;;;2.30;77.70;;;;;;2047746;29;20051;-88
2022/04/02 02:39:51;;;;;;;2.80;1.27;;;2.30;77.70;;;;;;2041365;29;20554;-89
2022/04/02 02:41:10;;;;;;;2.05;1.10;;;2.30;77.70;;;;;;2038493;29;20102;-89
2022/04/02 02:42:30;;;;;;;2.78;1.10;;;2.30;78.30;;;;;;2038451;29;20426;-89
2022/04/02 02:43:49;;;;;;;2.05;1.17;;;2.30;77.70;;;;;;2050754;28;20039;-89
2022/04/02 02:45:08;;;;;;;3.00;1.20;;;2.30;77.80;;;;;;2058096;28;20051;-89
2022/04/02 02:46:27;;;;;;;4.07;1.13;;;2.30;77.70;;;;;;2057685;28;20396;-89
2022/04/02 02:47:46;;;;;;;1.52;0.90;;;2.30;77.60;;;;;;2048467;28;20118;-89
2022/04/02 02:49:05;;;;;;;1.67;0.85;;;2.30;77.60;;;;;;2050973;28;20043;-89
2022/04/02 02:50:26;;;;;;;2.33;1.13;;;2.30;77.70;;;;;;2025870;29;20068;-88
2022/04/02 02:51:45;;;;;;;2.22;1.00;;;2.30;77.70;;;;;;2040692;28;20043;-88
2022/04/02 02:53:04;;;;;;;1.75;0.90;;;2.30;77.70;;;;;;2054895;28;20046;-89
2022/04/02 02:54:24;;;;;;;2.38;0.98;;;2.20;77.60;;;;;;2050070;29;20043;-89
2022/04/02 02:55:48;;;;;;;2.33;1.00;;;2.20;77.60;;;;;;2033299;29;20040;-88
2022/04/02 02:57:07;;;;;;;1.85;0.80;;;2.20;77.70;;;;;;2042320;28;20032;-89
2022/04/02 02:58:26;;;;;;;2.63;1.17;;;2.20;77.70;;;;;;2047372;29;20043;-89
2022/04/02 02:59:45;;;;;;;2.50;1.10;;;2.20;77.80;;;;;;2050247;29;20043;-88
2022/04/02 03:01:05;;;;;;;3.15;1.05;;;2.20;77.80;;;;;;2034994;29;20146;-88
2022/04/02 03:02:25;;;;;;;1.77;1.00;;;2.20;77.80;;;;;;2035527;29;20043;-89
2022/04/02 03:03:44;;;;;;;2.58;1.05;;;2.20;77.90;;;;;;2036593;29;20051;-89
2022/04/02 03:05:11;;;;;;;2.67;1.27;;;2.20;77.80;;;;;;2054727;28;20054;-89
2022/04/02 03:06:30;;;;;;;1.95;0.93;;;2.20;77.90;;;;;;2052091;28;20027;-88
2022/04/02 03:07:49;;;;;;;1.75;0.93;;;2.20;77.80;;;;;;2047898;28;20051;-88
2022/04/02 03:09:08;;;;;;;1.52;0.95;;;2.20;77.70;;;;;;2041308;29;20040;-89
2022/04/02 03:10:28;;;;;;;1.73;0.93;;;2.20;77.80;;;;;;2046452;29;20526;-89
2022/04/02 03:11:47;;;;;;;1.85;0.80;;;2.20;77.90;;;;;;2049748;29;20039;-89
2022/04/02 03:13:06;;;;;;;1.92;1.02;;;2.20;77.90;;;;;;2049660;29;20039;-89
2022/04/02 03:14:26;;;;;;;2.53;1.00;;;2.10;77.90;;;;;;2050858;28;20039;-89
2022/04/02 03:15:45;;;;;;;2.22;1.00;;;2.20;78.00;;;;;;2049551;29;20047;-89
2022/04/02 03:17:04;;;;;;;1.73;0.90;;;2.10;78.00;;;;;;2050013;28;20125;-88
2022/04/02 03:18:23;;;;;;;1.52;0.90;;;2.10;78.00;;;;;;2049569;29;20035;-88
2022/04/02 03:19:43;;;;;;;1.52;0.90;;;2.10;78.10;;;;;;2041247;29;20071;-89
2022/04/02 03:21:02;;;;;;;2.13;1.10;;;2.10;78.00;;;;;;2022565;29;20041;-89
2022/04/02 03:22:22;;;;;;;1.58;0.90;;;2.10;78.10;;;;;;2030817;29;20115;-89
2022/04/02 03:23:41;;;;;;;2.00;0.82;;;2.10;78.20;;;;;;2027391;29;20036;-89
2022/04/02 03:25:03;;;;;;;3.28;1.17;;;2.10;78.20;;;;;;2040379;29;20122;-88
2022/04/02 03:26:24;;;;;;;2.45;1.08;;;2.10;78.20;;;;;;2049278;28;20031;-89
2022/04/02 03:27:43;;;;;;;;;;;2.10;78.20;;;;;;2049945;28;20043;-88
2022/04/02 03:29:02;;;;;;;2.53;1.20;;;2.10;78.20;;;;;;2049742;29;19914;-88
2022/04/02 03:30:23;;;;;;;3.67;1.23;;;2.10;78.20;;;;;;2049716;28;20051;-89
2022/04/02 03:31:43;;;;;;;1.92;0.93;;;2.10;78.10;;;;;;2033231;29;20040;-89
2022/04/02 03:33:02;;;;;;;2.63;1.13;;;2.10;78.20;;;;;;2034039;29;20451;-89
2022/04/02 03:34:21;;;;;;;1.58;0.90;;;2.10;78.20;;;;;;2038276;29;20079;-89
2022/04/02 03:35:43;;;;;;;2.22;1.08;;;2.10;78.30;;;;;;2029993;29;20036;-89
2022/04/02 03:37:03;;;;;;;2.55;1.10;;;2.10;78.30;;;;;;2044938;28;20038;-89
2022/04/02 03:38:22;;;;;;;2.45;1.10;;;2.10;78.30;;;;;;2034301;29;20048;-89
2022/04/02 03:39:41;;;;;;;2.88;1.05;;;2.00;78.30;;;;;;2043638;28;20050;-89
2022/04/02 03:41:00;;;;;;;2.17;1.25;;;2.00;78.40;;;;;;2048969;28;20126;-88
2022/04/02 03:42:20;;;;;;;2.58;1.35;;;2.00;78.30;;;;;;2033226;29;20044;-88
2022/04/02 03:43:40;;;;;;;2.75;1.10;;;2.00;78.30;;;;;;2043001;29;20043;-88
2022/04/02 03:44:59;;;;;;;2.15;1.15;;;2.00;78.30;;;;;;2040918;29;20111;-89
2022/04/02 03:47:57;;;;;;;2.88;0.90;;;2.00;78.40;;;;;;2040449;29;20506;-89
2022/04/02 03:49:16;;;;;;;2.22;1.00;;;2.00;78.40;;;;;;2043412;29;20047;-89
2022/04/02 03:50:35;;;;;;;1.90;1.10;;;2.00;78.50;;;;;;2045958;29;20497;-89
2022/04/02 03:51:55;;;;;;;4.20;1.15;;;2.00;78.50;;;;;;2045758;29;20511;-89
2022/04/02 03:53:14;;;;;;;2.63;1.00;;;2.00;78.50;;;;;;2029860;29;20052;-88
2022/04/02 03:54:35;;;;;;;2.70;1.15;;;2.00;78.50;;;;;;2034976;29;20055;-89
2022/04/02 03:55:54;;;;;;;4.40;1.35;;;2.00;78.50;;;;;;2032761;29;20067;-89
2022/04/02 03:57:14;;;;;;;2.72;1.27;;;2.00;78.50;;;;;;2024889;29;20068;-89
2022/04/02 03:58:34;;;;;;;2.25;1.30;;;2.00;78.50;;;;;;2035521;29;20048;-88
2022/04/02 03:59:53;;;;;;;2.70;1.10;;;2.00;78.50;;;;;;2025596;29;20049;-89
2022/04/02 04:01:13;;;;;;;2.95;1.20;;;2.00;78.50;;;;;;2033361;29;20053;-89
2022/04/02 04:02:32;;;;;;;2.05;1.20;;;2.00;78.50;;;;;;2038109;29;20048;-89
2022/04/02 04:03:52;;;;;;;3.38;1.27;;;2.00;78.50;;;;;;2033851;29;20044;-89
2022/04/02 04:05:11;;;;;;;3.78;1.60;;;2.00;78.80;;;;;;2038924;29;20040;-88
2022/04/02 04:06:34;;;;;;;2.80;1.15;;;2.00;78.50;;;;;;2041352;29;20047;-89
2022/04/02 04:07:53;;;;;;;3.30;1.33;;;2.00;78.40;;;;;;2041041;29;20040;-88
2022/04/02 04:09:12;;;;;;;2.47;1.20;;;2.00;78.50;;;;;;2033846;29;20052;-89
2022/04/02 04:10:32;;;;;;;3.35;1.00;;;2.00;78.50;;;;;;2043886;29;20055;-88
2022/04/02 04:11:51;;;;;;;2.20;1.10;;;2.00;78.40;;;;;;2047761;29;20078;-88
2022/04/02 04:13:10;;;;;;;3.85;1.23;;;2.00;78.50;;;;;;2050711;29;20043;-89
2022/04/02 04:14:29;;;;;;;2.10;1.15;;;2.00;78.40;;;;;;2030099;29;20032;-89
2022/04/02 04:15:49;;;;;;;2.58;1.33;;;2.00;78.50;;;;;;2041943;29;20043;-89
2022/04/02 04:17:08;;;;;;;1.95;0.95;;;2.00;78.50;;;;;;2058078;28;20043;-89
2022/04/02 04:18:28;;;;;;;2.33;1.10;;;2.00;78.50;;;;;;2037793;29;20043;-89
2022/04/02 04:19:47;;;;;;;2.10;1.00;;;2.00;78.40;;;;;;2043248;28;20557;-89
2022/04/02 04:21:06;;;;;;;2.08;1.08;;;2.00;78.50;;;;;;2050224;29;20035;-89
2022/04/02 04:22:26;;;;;;;1.98;1.05;;;2.00;79.00;;;;;;2031565;29;20044;-89
2022/04/02 04:23:45;;;;;;;2.42;1.27;;;2.00;78.80;;;;;;2031507;29;20052;-89
2022/04/02 04:25:04;;;;;;;1.98;1.00;;;2.00;78.50;;;;;;2044685;29;20043;-89
2022/04/02 04:26:24;;;;;;;1.98;1.15;;;2.00;78.50;;;;;;2049277;29;20035;-88
2022/04/02 04:27:43;;;;;;;2.80;1.15;;;2.00;78.50;;;;;;2055403;28;20046;-89
2022/04/02 04:29:03;;;;;;;1.83;1.05;;;2.00;78.40;;;;;;2058485;28;20047;-88
2022/04/02 04:30:22;;;;;;;1.90;1.00;;;2.00;78.50;;;;;;2058752;28;20517;-88
2022/04/02 04:31:41;;;;;;;3.58;1.13;;;2.00;78.50;;;;;;2049684;29;20043;-89
2022/04/02 04:33:02;;;;;;;2.63;1.10;;;2.00;78.50;;;;;;2039523;29;20557;-89
2022/04/02 04:34:21;;;;;;;;;;;2.00;78.60;;;;;;2052895;28;20125;-89
2022/04/02 04:35:41;;;;;;;;;;;1.90;78.50;;;;;;2042884;29;20313;-89
2022/04/02 04:37:00;;;;;;;;;;;1.90;78.50;;;;;;2047796;29;19907;-89
2022/04/02 04:38:19;;;;;;;;;;;1.90;78.50;;;;;;2039751;29;19919;-89
2022/04/02 04:39:39;;;;;;;;;;;1.90;78.60;;;;;;2044362;28;19958;-88
2022/04/02 04:40:59;;;;;;;;;;;1.90;78.60;;;;;;2047940;29;20394;-89
2022/04/02 04:42:18;;;;;;;;;;;1.90;78.70;;;;;;2050410;29;19910;-89
2022/04/02 04:43:37;;;;;;;;;;;1.90;78.70;;;;;;2040001;29;19918;-89
2022/04/02 04:44:56;;;;;;;;;;;1.90;78.70;;;;;;2052596;28;19910;-88
2022/04/02 04:46:16;;;;;;;;;;;1.80;78.70;;;;;;2049720;29;19907;-88
2022/04/02 04:47:36;;;;;;;;;;;1.80;78.70;;;;;;2045924;29;19915;-90
2022/04/02 04:48:55;;;;;;;;;;;1.80;78.80;;;;;;2047721;28;20000;-88
2022/04/02 04:50:15;;;;;;;;;;;1.80;78.80;;;;;;2041842;29;19922;-89
2022/04/02 04:51:34;;;;;;;;;;;1.80;78.80;;;;;;2052605;28;19914;-89
2022/04/02 04:52:53;;;;;;;;;;;1.80;78.80;;;;;;2059288;28;19956;-89
2022/04/02 04:54:13;;;;;;;;;;;1.80;78.80;;;;;;2054091;28;19954;-89
2022/04/02 04:55:32;;;;;;;;;;;1.80;78.90;;;;;;2059024;28;20345;-88
2022/04/02 04:56:51;;;;;;;;;;;1.80;78.80;;;;;;2050769;29;19910;-89
2022/04/02 04:58:10;;;;;;;;;;;1.80;78.90;;;;;;2054487;28;20000;-89
2022/04/02 04:59:30;;;;;;;;;;;1.80;78.90;;;;;;2048985;29;19914;-89
2022/04/02 05:00:49;;;;;;;;;;;1.80;79.00;;;;;;2046035;29;20397;-89
2022/04/02 05:02:10;;;;;;;;;;;1.80;78.90;;;;;;2050598;29;19910;-89
2022/04/02 05:03:31;;;;;;;;;;;1.80;78.90;;;;;;2047914;29;19911;-88
2022/04/02 05:04:50;;;;;;;;;;;1.80;78.90;;;;;;2047038;29;20016;-88
2022/04/02 05:06:10;;;;;;;;;;;1.80;78.90;;;;;;2047597;29;19949;-88
2022/04/02 05:07:29;;;;;;;;;;;1.80;79.00;;;;;;2055432;28;20008;-89
2022/04/02 05:08:49;;;;;;;;;;;1.80;79.00;;;;;;2042478;29;19932;-88
2022/04/02 05:10:08;;;;;;;;;;;1.80;79.00;;;;;;2047341;28;19915;-89
2022/04/02 05:11:27;;;;;;;;;;;1.80;79.00;;;;;;2055673;28;19918;-89
2022/04/02 05:12:46;;;;;;;;;;;1.80;79.00;;;;;;2042022;29;20317;-89
2022/04/02 05:14:06;;;;;;;;;;;1.80;79.00;;;;;;2044737;29;19914;-88
2022/04/02 05:15:25;;;;;;;;;;;1.80;79.00;;;;;;2055599;28;19918;-89
2022/04/02 05:16:44;;;;;;;;;;;1.80;79.10;;;;;;2049516;29;19915;-89
2022/04/02 05:18:03;;;;;;;;;;;1.80;79.10;;;;;;2047886;29;19918;-89
2022/04/02 05:19:22;;;;;;;;;;;1.80;79.20;;;;;;2051088;28;19918;-89
2022/04/02 05:20:42;;;;;;;;;;;1.80;79.20;;;;;;2058959;28;19910;-89
2022/04/02 05:22:01;;;;;;;;;;;1.80;79.20;;;;;;2045415;29;19966;-89
2022/04/02 05:23:20;;;;;;;;;;;1.70;79.20;;;;;;2041951;29;19918;-89
2022/04/02 05:24:39;;;;;;;;;;;1.70;79.20;;;;;;2047809;29;20381;-89
2022/04/02 05:25:58;;;;;;;;;;;1.80;79.30;;;;;;2047427;29;19914;-89
2022/04/02 05:27:18;;;;;;;;;;;1.80;79.30;;;;;;2055770;28;19910;-89
2022/04/02 05:28:37;;;;;;;;;;;1.70;79.30;;;;;;2049484;29;19919;-88
2022/04/02 05:29:56;;;;;;;;;;;1.70;79.30;;;;;;2053649;28;19914;-89
2022/04/02 05:31:15;;;;;;;;;;;1.70;79.30;;;;;;2042476;29;20389;-88
2022/04/02 05:32:34;;;;;;;;;;;1.70;79.30;;;;;;2053854;28;19910;-88
2022/04/02 05:33:54;;;;;;;;;;;1.70;79.40;;;;;;2058546;28;19914;-89
2022/04/02 05:35:13;;;;;;;;;;;1.70;79.50;;;;;;2059045;28;19910;-89
2022/04/02 05:36:33;;;;;;;;;;;1.70;79.50;;;;;;2050540;29;19910;-89
2022/04/02 05:37:52;;;;;;;;;;;1.70;79.60;;;;;;2047017;29;19941;-89
2022/04/02 05:39:11;;;;;;;;;;;1.60;79.50;;;;;;2045963;28;19953;-89
2022/04/02 05:40:30;;;;;;;;;;;1.70;79.60;;;;;;2048295;29;19974;-89
2022/04/02 05:41:51;;;;;;;;;;;1.70;79.70;;;;;;2038486;29;19915;-89
2022/04/02 05:43:10;;;;;;;;;;;1.60;79.60;;;;;;2052623;28;19906;-89
2022/04/02 05:44:30;;;;;;;;;;;1.60;79.70;;;;;;2048613;29;19922;-89
2022/04/02 05:45:49;;;;;;;;;;;1.60;79.70;;;;;;2055852;28;20288;-89
2022/04/02 05:47:09;;;;;;;;;;;1.60;79.70;;;;;;2050231;29;19915;-89
2022/04/02 05:48:29;;;;;;;;;;;1.60;79.80;;;;;;2055424;28;19914;-89
2022/04/02 05:49:51;;;;;;;;;;;1.60;79.80;;;;;;2050959;28;19914;-88
2022/04/02 05:51:10;;;;;;;;;;;1.60;79.80;;;;;;2050195;29;19914;-89
2022/04/02 05:52:29;;;;;;;;;;;1.60;79.80;;;;;;2055124;28;19911;-89
2022/04/02 05:53:48;;;;;;;;;;;1.60;79.80;;;;;;2059885;28;19974;-89
2022/04/02 05:55:08;;;;;;;;;;;1.60;79.90;;;;;;2051202;29;19997;-88
2022/04/02 05:56:28;;;;;;;;;;;1.60;79.90;;;;;;2057512;28;20388;-89
2022/04/02 05:57:48;;;;;;;;;;;1.60;79.90;;;;;;2050469;29;20398;-89
2022/04/02 05:59:07;;;;;;;;;;;1.60;80.00;;;;;;2055024;28;19918;-89
2022/04/02 06:00:27;;;;;;;;;;;1.60;80.00;;;;;;2047537;29;20397;-89
2022/04/02 06:01:46;;;;;;;;;;;1.60;80.00;;;;;;2052270;28;20031;-89
2022/04/02 06:03:05;;;;;;;;;;;1.60;80.00;;;;;;2050113;29;19917;-88
2022/04/02 06:04:25;;;;;;;;;;;1.60;80.00;;;;;;2039423;29;19919;-89
2022/04/02 06:05:44;;;;;;;;;;;1.60;80.00;;;;;;2040214;28;19918;-88
2022/04/02 06:07:04;;;;;;;;;;;1.60;80.00;;;;;;2050242;29;20357;-89
2022/04/02 06:08:23;;;;;;;;;;;1.60;80.00;;;;;;2050031;29;20365;-88
2022/04/02 06:09:43;;;;;;;;;;;1.60;80.00;;;;;;2054814;28;19914;-87
2022/04/02 06:11:02;;;;;;;;;;;1.60;80.00;;;;;;2056557;28;19923;-88
2022/04/02 06:12:21;;;;;;;;;;;1.60;80.00;;;;;;2059150;28;19910;-88
2022/04/02 06:13:41;;;;;;;;;;;1.60;80.10;;;;;;2042393;29;20382;-88
2022/04/02 06:15:00;;;;;;;;;;;1.60;80.10;;;;;;2047161;28;19910;-88
2022/04/02 06:16:19;;;;;;;;;;;1.60;80.10;;;;;;2043797;29;19940;-88
2022/04/02 06:17:38;;;;;;;;;;;1.60;80.10;;;;;;2049670;28;19911;-90
2022/04/02 06:18:57;;;;;;;;;;;1.70;80.20;;;;;;2049128;28;19910;-90
2022/04/02 06:20:17;;;;;;;;;;;1.70;80.20;;;;;;2048118;29;19961;-90
2022/04/02 06:21:36;;;;;;;;;;;1.70;80.20;;;;;;2052151;28;19922;-91
2022/04/02 06:22:55;;;;;;;;;;;1.70;80.20;;;;;;2042532;29;19914;-90
2022/04/02 06:24:14;;;;;;;;;;;1.70;80.20;;;;;;2044090;28;20159;-89
2022/04/02 06:25:34;;;;;;;;;;;1.70;80.10;;;;;;2050212;29;19911;-90
2022/04/02 06:26:53;;;;;;;;;;;1.70;80.10;;;;;;2046521;29;19997;-89
2022/04/02 06:28:12;;;;;;;;;;;1.70;80.10;;;;;;2046741;29;20377;-89
2022/04/02 06:29:32;;;;;;;;;;;1.80;80.10;;;;;;2042947;29;19915;-89
2022/04/02 06:30:51;;;;;;;;;;;1.80;80.00;;;;;;2038515;29;19950;-89
2022/04/02 06:32:10;;;;;;;;;;;1.80;80.00;;;;;;2040761;29;19911;-89
2022/04/02 06:33:30;;;;;;;;;;;1.90;80.00;;;;;;2034465;29;20299;-89
2022/04/02 06:34:48;;;;;;;;;;;1.90;80.00;;;;;;2047169;29;20277;-90
2022/04/02 06:36:08;;;;;;;;;;;1.90;79.90;;;;;;2040756;29;20420;-91
2022/04/02 06:37:32;;;;;;;;;;;1.90;79.90;;;;;;2033402;29;20384;-88
2022/04/02 06:38:51;;;;;;;;;;;2.00;79.90;;;;;;2046930;29;19950;-88
2022/04/02 06:40:10;;;;;;;;;;;2.00;79.90;;;;;;2041763;29;20382;-88
2022/04/02 06:41:29;;;;;;;;;;;2.00;79.80;;;;;;2054545;28;19922;-88
2022/04/02 06:42:48;;;;;;;;;;;2.00;79.80;;;;;;2057958;28;19945;-88
2022/04/02 06:44:08;;;;;;;;;;;2.10;79.80;;;;;;2058610;28;19914;-88
2022/04/02 06:45:27;;;;;;;;;;;2.10;79.80;;;;;;2042533;29;19911;-88
2022/04/02 06:46:46;;;;;;;;;;;2.10;79.80;;;;;;2050165;28;20269;-88
2022/04/02 06:48:06;;;;;;;;;;;2.20;79.70;;;;;;2041941;29;19915;-89
2022/04/02 06:49:25;;;;;;;;;;;2.20;79.70;;;;;;2045577;29;20017;-88
2022/04/02 06:50:44;;;;;;;;;;;2.20;79.60;;;;;;2046698;29;19910;-88
2022/04/02 06:52:03;;;;;;;;;;;2.20;79.60;;;;;;2049107;28;20572;-88
2022/04/02 06:53:23;;;;;;;;;;;2.30;79.70;;;;;;2045648;29;20001;-88
2022/04/02 06:54:42;;;;;;;;;;;2.40;79.70;;;;;;2038849;29;20437;-88
2022/04/02 06:56:02;;;;;;;;;;;2.30;79.60;;;;;;2039526;29;20424;-89
2022/04/02 06:57:21;;;;;;;;;;;2.40;79.60;;;;;;2040637;28;19915;-88
2022/04/02 06:58:40;;;;;;;;;;;2.40;79.60;;;;;;2046858;29;19907;-88
2022/04/02 07:00:00;;;;;;;;;;;2.50;79.60;;;;;;2041905;29;19911;-88
2022/04/02 07:01:19;;;;;;;;;;;2.50;79.50;;;;;;2038675;29;19919;-88
2022/04/02 07:02:38;;;;;;;;;;;2.50;79.50;;;;;;2046712;29;19906;-88
2022/04/02 07:03:57;;;;;;;;;;;2.50;79.50;;;;;;2050681;28;19914;-88
2022/04/02 07:05:18;;;;;;;;;;;2.50;79.50;;;;;;2034037;29;19962;-88
2022/04/02 07:06:38;;;;;;;;;;;2.60;79.50;;;;;;2039112;29;19910;-88
2022/04/02 07:07:57;;;;;;;;;;;2.60;79.40;;;;;;2048975;28;20268;-88
2022/04/02 07:09:18;;;;;;;;;;;2.60;79.40;;;;;;2057655;28;19914;-85
2022/04/02 07:10:38;;;;;;;;;;;2.70;79.40;;;;;;2049886;29;20001;-86
2022/04/02 07:11:57;;;;;;;;;;;2.70;79.40;;;;;;2050245;28;19914;-87
2022/04/02 07:13:16;;;;;;;;;;;2.70;79.30;;;;;;2050452;29;19911;-88
2022/04/02 07:14:36;;;;;;;;;;;2.70;79.30;;;;;;2050264;28;19914;-88
2022/04/02 07:15:55;;;;;;;;;;;2.70;79.30;;;;;;2047873;29;19910;-88
2022/04/02 07:17:14;;;;;;;;;;;2.80;79.40;;;;;;2038893;29;20350;-88
2022/04/02 07:18:35;;;;;;;;;;;2.80;79.40;;;;;;2051341;28;20033;-87
2022/04/02 07:19:55;;;;;;;;;;;2.80;79.30;;;;;;2044064;28;19918;-88
2022/04/02 07:21:16;;;;;;;;;;;2.80;79.30;;;;;;2052801;28;19931;-88
2022/04/02 07:22:38;;;;;;;;;;;2.80;79.30;;;;;;2041638;29;19910;-87